Sioux Gateway Col. Bud Day Field
KSUX : now visible

Airfield :











YOU CAN JOIN US ON...

 
LOGIN :

Register | Disclaimer

   EN    FR    IT 

 









Legend :    VFR   Marginal VFR   IFR   Intensive IFR   Very Intensive IFR
Visi :
Ceiling :
>= 8 km
>= 3000ft
5 to 8 km
1000 to 3000 ft
1500m to 5 km
500 to 1000 ft
800 to 1500m
200 to 500 ft
< 800m
< 200 ft
Symbols :   Thunderstorms  Fog  Heavy snow  Heavy precipitations  Wind > 20 kt






- Airport Elevation : 1098 ft
- IATA code : SUX


KSUX - Sioux Gateway Col. Bud Day Field

CURRENT METAR :
  • 072052Z AUTO 17011KT 10SM OVC037 27/22 A2990 RMK AO2 SLP119 T02720217 55007

EXPIRED METARs :
  • 071952Z 17014G22KT 10SM OVC030 27/21 A2990 RMK AO2 SLP118 T02670211
  • 071852Z 17013G22KT 10SM BKN021 OVC028 26/22 A2991 RMK AO2 SLP121 T02610217
  • 071752Z 17012KT 9SM BKN017 OVC022 26/22 A2992 RMK AO2 SLP126 T02610222 10261 20222 56002

TAF KSUX
Valid from the 07 at 18:00 until the 08 at 18:00 UTC


071730Z 0718/0818 17012G17KT P6SM OVC015
FM071900 17013G19KT P6SM BKN025
FM072200 16014G21KT P6SM SCT050
FM080600 15008KT P6SM BKN018
FM081700 15006KT P6SM SCT025
KZMP FIR / North America



MET'MAP, your aeronautical weather chart ! - Copyright ORBIFLY December 2007 - Disclaimer

ORBIFLY MET'MAP TEAM :

Programming & Development : Alexandra Zaïnal
Concept & original design : Baudouin d'Aumeries
Assistance for programming : Marc-Olivier Méhu
Technical & hardware support : Manuel Goepfert

Contact : metmap@orbifly.com




SOURCES & CREDITS :

   NOAA       Earth
Advisory